Time;durP1;ratioP1;P1;durP2;ratioP2;P2;SDS_P1;SDS_P2;PMS_P1;PMS_P2;Temp;Humidity;BMP_temperature;BMP_pressure;BME280_temperature;BME280_humidity;BME280_pressure;Samples;Min_cycle;Max_cycle;Signal;HPM_P1;HPM_P2
2021/12/23 00:00:08;;;;;;;4.00;3.20;;;-4.70;99.90;;;;;;4874754;29;20412;-65
2021/12/23 00:02:38;;;;;;;4.15;3.22;;;-4.70;99.90;;;;;;4873587;29;20139;-69
2021/12/23 00:05:08;;;;;;;5.73;4.40;;;-4.60;99.90;;;;;;4876045;29;20056;-64
2021/12/23 00:07:35;;;;;;;5.53;4.67;;;-4.70;99.90;;;;;;4877347;29;20159;-68
2021/12/23 00:10:07;;;;;;;4.93;3.90;;;-4.60;99.90;;;;;;4871860;29;20149;-64
2021/12/23 00:12:40;;;;;;;3.60;3.20;;;-4.60;99.90;;;;;;4874917;29;20048;-65
2021/12/23 00:15:22;;;;;;;6.67;3.90;;;-4.70;99.90;;;;;;4875474;29;20152;-66
2021/12/23 00:17:57;;;;;;;6.50;3.73;;;-4.60;99.90;;;;;;4875230;29;20372;-67
2021/12/23 00:25:49;;;;;;;5.40;4.27;;;-4.60;99.90;;;;;;4876582;29;20044;-65
2021/12/23 00:28:16;;;;;;;3.23;3.00;;;-4.60;99.90;;;;;;4875416;29;20103;-66
2021/12/23 00:30:43;;;;;;;5.13;3.10;;;-4.60;99.90;;;;;;4875285;29;20077;-67
2021/12/23 00:33:10;;;;;;;3.60;2.90;;;-4.50;99.90;;;;;;4877886;29;20067;-65
2021/12/23 00:35:38;;;;;;;2.63;2.27;;;-4.50;99.90;;;;;;4876407;29;20056;-66
2021/12/23 00:38:14;;;;;;;6.70;3.83;;;-4.50;99.90;;;;;;4881526;29;20048;-65
2021/12/23 00:40:41;;;;;;;4.20;3.70;;;-4.50;99.90;;;;;;4879177;29;20171;-65
2021/12/23 00:43:08;;;;;;;4.30;3.30;;;-4.50;99.90;;;;;;4878867;29;20083;-67
2021/12/23 00:45:35;;;;;;;3.97;2.93;;;-4.50;99.90;;;;;;4877258;29;20052;-65
2021/12/23 00:48:02;;;;;;;3.60;3.00;;;-4.50;99.90;;;;;;4879202;29;20049;-67
2021/12/23 00:50:29;;;;;;;5.03;3.20;;;-4.40;99.90;;;;;;4879368;29;20071;-66
2021/12/23 00:52:58;;;;;;;3.77;3.37;;;-4.40;99.90;;;;;;4878968;29;20048;-65
2021/12/23 00:55:25;;;;;;;4.17;3.23;;;-4.40;99.90;;;;;;4880744;29;20120;-66
2021/12/23 00:57:51;;;;;;;3.83;2.90;;;-4.30;99.90;;;;;;4880569;29;20072;-65
2021/12/23 01:00:19;;;;;;;5.33;3.83;;;-4.30;99.90;;;;;;4878643;29;20056;-64
2021/12/23 01:02:48;;;;;;;4.30;3.07;;;-4.40;99.90;;;;;;4879103;29;20160;-67
2021/12/23 01:05:17;;;;;;;3.40;2.83;;;-4.30;99.90;;;;;;4879549;29;20044;-65
2021/12/23 01:07:44;;;;;;;4.30;3.90;;;-4.30;99.90;;;;;;4880776;29;20151;-64
2021/12/23 01:10:12;;;;;;;4.13;3.13;;;-4.30;99.90;;;;;;4879386;29;20688;-65
2021/12/23 01:12:52;;;;;;;4.43;3.33;;;-4.30;99.90;;;;;;4879003;29;20156;-66
2021/12/23 01:18:13;;;;;;;4.53;3.15;;;-4.20;99.90;;;;;;4880133;29;20053;-65
2021/12/23 01:21:02;;;;;;;6.03;3.40;;;-4.20;99.90;;;;;;4877765;29;20101;-65
2021/12/23 01:23:33;;;;;;;4.33;3.20;;;-4.20;99.90;;;;;;4878595;29;20086;-66
2021/12/23 01:26:01;;;;;;;4.83;4.03;;;-4.20;99.90;;;;;;4879684;29;20112;-66
2021/12/23 01:28:27;;;;;;;6.70;3.17;;;-4.10;99.90;;;;;;4879223;29;20051;-65
2021/12/23 01:30:54;;;;;;;3.03;2.63;;;-4.10;99.90;;;;;;4877684;29;20116;-67
2021/12/23 01:33:22;;;;;;;3.47;3.10;;;-4.10;99.90;;;;;;4880928;29;20087;-63
2021/12/23 01:35:50;;;;;;;2.87;2.57;;;-4.10;99.90;;;;;;4875770;29;20467;-64
2021/12/23 01:38:17;;;;;;;3.67;3.07;;;-4.10;99.90;;;;;;4877675;29;20984;-68
2021/12/23 01:40:46;;;;;;;3.43;3.07;;;-4.10;99.90;;;;;;4880110;29;20482;-65
2021/12/23 01:43:16;;;;;;;5.47;4.97;;;-4.10;99.90;;;;;;4877767;29;20079;-64
2021/12/23 01:45:49;;;;;;;3.43;3.13;;;-4.10;99.90;;;;;;4880204;29;20060;-65
2021/12/23 01:48:17;;;;;;;4.60;3.70;;;-4.10;99.90;;;;;;4876601;29;20140;-65
2021/12/23 01:50:44;;;;;;;5.40;2.90;;;-4.10;99.90;;;;;;4878032;29;20156;-65
2021/12/23 01:53:12;;;;;;;3.40;3.10;;;-4.10;99.90;;;;;;4878584;29;20132;-66
2021/12/23 01:55:42;;;;;;;4.23;2.93;;;-4.00;99.90;;;;;;4877411;29;20084;-64
2021/12/23 01:58:10;;;;;;;4.15;2.83;;;-4.00;99.90;;;;;;4880790;29;21292;-64
2021/12/23 02:00:40;;;;;;;3.73;2.90;;;-4.00;99.90;;;;;;4877125;29;20147;-68
2021/12/23 02:03:07;;;;;;;3.50;2.85;;;-4.00;99.90;;;;;;4880797;29;20048;-66
2021/12/23 02:05:35;;;;;;;2.90;2.60;;;-4.00;99.90;;;;;;4877710;29;20384;-67
2021/12/23 02:08:16;;;;;;;3.93;3.00;;;-4.00;99.90;;;;;;4876656;29;20709;-64
2021/12/23 02:10:44;;;;;;;4.33;2.60;;;-4.00;99.90;;;;;;4880251;29;20132;-65
2021/12/23 02:13:11;;;;;;;5.17;2.90;;;-4.00;99.90;;;;;;4879397;29;20125;-67
2021/12/23 02:15:38;;;;;;;3.10;2.57;;;-4.00;99.90;;;;;;4879471;29;20079;-65
2021/12/23 02:18:05;;;;;;;2.97;2.40;;;-4.00;99.90;;;;;;4879064;29;20116;-66
2021/12/23 02:20:34;;;;;;;2.87;2.50;;;-4.00;99.90;;;;;;4877429;29;20185;-66
2021/12/23 02:23:03;;;;;;;3.00;2.67;;;-4.00;99.90;;;;;;4879970;29;20112;-64
2021/12/23 02:25:30;;;;;;;2.10;1.93;;;-4.00;99.90;;;;;;4879856;29;20139;-64
2021/12/23 02:27:57;;;;;;;2.50;2.30;;;-4.00;99.90;;;;;;4878125;29;20187;-65
2021/12/23 02:30:28;;;;;;;6.27;2.47;;;-3.90;99.90;;;;;;4875685;29;20068;-65
2021/12/23 02:32:56;;;;;;;2.63;2.43;;;-3.90;99.90;;;;;;4878407;29;20063;-65
2021/12/23 02:35:24;;;;;;;2.63;2.43;;;-3.90;99.90;;;;;;4875799;29;20124;-64
2021/12/23 02:37:52;;;;;;;2.30;2.10;;;-3.90;99.90;;;;;;4879880;29;20193;-66
2021/12/23 02:40:29;;;;;;;2.67;2.37;;;-3.90;99.90;;;;;;4877941;29;20048;-66
2021/12/23 02:43:06;;;;;;;3.07;2.17;;;-3.90;99.90;;;;;;4879662;29;20053;-65
2021/12/23 02:45:34;;;;;;;3.23;2.77;;;-3.90;99.90;;;;;;4873442;29;20049;-68
2021/12/23 02:48:01;;;;;;;1.77;1.67;;;-3.90;99.90;;;;;;4879237;29;20467;-65
2021/12/23 02:50:28;;;;;;;3.47;2.70;;;-3.90;99.90;;;;;;4876422;29;20119;-66
2021/12/23 02:52:58;;;;;;;2.67;2.27;;;-3.90;99.90;;;;;;4878318;29;20072;-66
2021/12/23 02:55:25;;;;;;;2.03;1.83;;;-3.90;99.90;;;;;;4876092;29;21522;-64
2021/12/23 02:57:52;;;;;;;5.17;2.23;;;-3.90;99.90;;;;;;4878782;29;20499;-66
2021/12/23 03:00:21;;;;;;;2.50;2.03;;;-3.90;99.90;;;;;;4875019;29;20427;-68
2021/12/23 03:02:48;;;;;;;2.20;2.00;;;-3.90;99.90;;;;;;4876382;29;20731;-65
2021/12/23 03:05:15;;;;;;;4.47;2.60;;;-3.90;99.90;;;;;;4876130;29;20064;-66
2021/12/23 03:07:42;;;;;;;2.17;1.90;;;-3.90;99.90;;;;;;4875968;29;20177;-66
2021/12/23 03:10:10;;;;;;;2.27;2.07;;;-3.90;99.90;;;;;;4877286;29;20048;-65
2021/12/23 03:12:37;;;;;;;4.27;2.43;;;-3.80;99.90;;;;;;4874144;29;20519;-65
2021/12/23 03:15:05;;;;;;;2.40;2.20;;;-3.80;99.90;;;;;;4877376;29;20167;-65
2021/12/23 03:17:32;;;;;;;3.57;2.37;;;-3.80;99.90;;;;;;4875812;29;20693;-66
2021/12/23 03:19:59;;;;;;;2.17;1.97;;;-3.80;99.90;;;;;;4875952;29;20187;-65
2021/12/23 03:22:26;;;;;;;4.97;3.03;;;-3.70;99.90;;;;;;4873141;29;20120;-67
2021/12/23 03:24:53;;;;;;;3.03;2.30;;;-3.70;99.90;;;;;;4875206;29;20443;-65
2021/12/23 03:27:20;;;;;;;2.53;2.20;;;-3.70;99.90;;;;;;4878368;29;20127;-64
2021/12/23 03:29:47;;;;;;;2.30;2.00;;;-3.70;99.90;;;;;;4877509;29;20053;-65
2021/12/23 03:32:14;;;;;;;2.90;2.50;;;-3.60;99.90;;;;;;4878644;29;20527;-66
2021/12/23 03:34:41;;;;;;;3.37;2.50;;;-3.60;99.90;;;;;;4875308;29;20152;-65
2021/12/23 03:37:08;;;;;;;3.87;2.10;;;-3.60;99.90;;;;;;4879343;29;20088;-65
2021/12/23 03:39:35;;;;;;;2.70;2.20;;;-3.60;99.90;;;;;;4878550;29;21020;-66
2021/12/23 03:42:02;;;;;;;2.23;1.80;;;-3.60;99.90;;;;;;4878404;29;20120;-65
2021/12/23 03:44:29;;;;;;;2.90;1.90;;;-3.60;99.90;;;;;;4872347;29;20143;-65
2021/12/23 03:46:56;;;;;;;3.72;1.80;;;-3.60;99.90;;;;;;4874463;29;20056;-65
2021/12/23 03:49:23;;;;;;;2.17;1.80;;;-3.60;99.90;;;;;;4876692;29;20837;-66
2021/12/23 03:51:50;;;;;;;3.57;2.30;;;-3.50;99.90;;;;;;4876682;29;20064;-66
2021/12/23 03:54:17;;;;;;;2.10;1.90;;;-3.50;99.90;;;;;;4874274;29;20055;-67
2021/12/23 03:56:44;;;;;;;3.47;1.53;;;-3.50;99.90;;;;;;4877096;29;20060;-64
2021/12/23 03:59:11;;;;;;;2.20;1.90;;;-3.50;99.90;;;;;;4875170;29;21440;-65
2021/12/23 04:01:38;;;;;;;2.23;2.03;;;-3.50;99.90;;;;;;4876504;29;20152;-64
2021/12/23 04:04:05;;;;;;;1.30;1.20;;;-3.50;99.90;;;;;;4875704;29;20053;-64
2021/12/23 04:06:33;;;;;;;2.77;2.43;;;-3.50;99.90;;;;;;4873978;29;20052;-68
2021/12/23 04:08:59;;;;;;;3.80;1.87;;;-3.50;99.90;;;;;;4874204;29;20064;-64
2021/12/23 04:11:27;;;;;;;2.88;1.33;;;-3.50;99.90;;;;;;4877055;29;20056;-64
2021/12/23 04:13:55;;;;;;;1.50;1.40;;;-3.50;99.90;;;;;;4879812;29;20119;-65
2021/12/23 04:16:22;;;;;;;2.00;1.70;;;-3.40;99.90;;;;;;4877749;29;20060;-68
2021/12/23 04:18:50;;;;;;;1.88;1.77;;;-3.40;99.90;;;;;;4880465;29;20427;-70
2021/12/23 04:21:18;;;;;;;2.08;1.45;;;-3.40;99.90;;;;;;4878934;29;20152;-68
2021/12/23 04:23:45;;;;;;;2.60;1.48;;;-3.40;99.90;;;;;;4880477;29;20271;-64
2021/12/23 04:26:12;;;;;;;1.90;1.70;;;-3.40;99.90;;;;;;4879507;29;20056;-67
2021/12/23 04:28:51;;;;;;;2.37;1.80;;;-3.40;99.90;;;;;;4877152;29;20123;-64
2021/12/23 04:31:20;;;;;;;1.52;1.42;;;-3.30;99.90;;;;;;4879805;29;20057;-66
2021/12/23 04:33:50;;;;;;;2.58;2.20;;;-3.30;99.90;;;;;;4880966;29;20067;-66
2021/12/23 04:36:18;;;;;;;1.10;1.00;;;-3.30;99.90;;;;;;4878994;29;20049;-66
2021/12/23 04:38:46;;;;;;;1.73;1.37;;;-3.20;99.90;;;;;;4878755;29;20052;-65
2021/12/23 04:41:14;;;;;;;1.57;1.47;;;-3.20;99.90;;;;;;4878843;29;20564;-66
2021/12/23 04:43:41;;;;;;;1.38;1.17;;;-3.20;99.90;;;;;;4880508;29;20052;-67
2021/12/23 04:46:10;;;;;;;3.20;1.80;;;-3.20;99.90;;;;;;4878569;29;20050;-66
2021/12/23 04:48:38;;;;;;;1.85;1.67;;;-3.10;99.90;;;;;;4877704;29;20076;-65
2021/12/23 04:51:05;;;;;;;4.30;1.42;;;-3.10;99.90;;;;;;4880222;29;20132;-66
2021/12/23 04:53:32;;;;;;;4.93;2.60;;;-3.10;99.90;;;;;;4881558;29;20143;-67
2021/12/23 04:55:59;;;;;;;3.15;1.90;;;-3.10;99.90;;;;;;4878400;29;20095;-66
2021/12/23 04:58:26;;;;;;;1.85;1.35;;;-3.00;99.90;;;;;;4878210;29;20048;-67
2021/12/23 05:00:53;;;;;;;2.20;1.90;;;-3.00;99.90;;;;;;4876199;29;20048;-65
2021/12/23 05:03:22;;;;;;;2.28;1.50;;;-3.00;99.90;;;;;;4879185;29;20840;-66
2021/12/23 05:05:50;;;;;;;1.90;1.63;;;-3.00;99.90;;;;;;4880535;29;20154;-65
2021/12/23 05:08:17;;;;;;;3.38;1.60;;;-3.00;99.90;;;;;;4873330;29;20726;-65
2021/12/23 05:10:45;;;;;;;2.85;1.98;;;-3.00;99.90;;;;;;4879009;29;20048;-65
2021/12/23 05:13:12;;;;;;;2.30;1.90;;;-2.90;99.90;;;;;;4877599;29;20048;-67
2021/12/23 05:15:40;;;;;;;3.17;2.20;;;-2.90;99.90;;;;;;4894615;29;20458;-65
2021/12/23 05:18:07;;;;;;;2.67;2.10;;;-2.90;99.90;;;;;;4879222;29;20045;-65
2021/12/23 05:20:35;;;;;;;2.10;1.70;;;-2.90;99.90;;;;;;4878382;29;20151;-67
2021/12/23 05:23:02;;;;;;;2.17;1.97;;;-2.90;99.90;;;;;;4876822;29;20235;-66
2021/12/23 05:25:29;;;;;;;2.70;1.88;;;-2.80;99.90;;;;;;4878609;29;20112;-65
2021/12/23 05:27:58;;;;;;;1.70;1.60;;;-2.80;99.90;;;;;;4878538;29;20411;-64
2021/12/23 05:30:27;;;;;;;1.38;1.25;;;-2.80;99.90;;;;;;4877501;29;20052;-65
2021/12/23 05:32:54;;;;;;;1.35;1.25;;;-2.80;99.90;;;;;;4878864;29;20115;-66
2021/12/23 05:35:22;;;;;;;1.97;1.57;;;-2.70;99.90;;;;;;4878051;29;20155;-65
2021/12/23 05:37:49;;;;;;;2.83;1.98;;;-2.70;99.90;;;;;;4878767;29;20176;-66
2021/12/23 05:40:18;;;;;;;2.72;2.08;;;-2.70;99.90;;;;;;4876506;29;20960;-66
2021/12/23 05:42:46;;;;;;;2.97;2.10;;;-2.70;99.90;;;;;;4875387;29;20179;-65
2021/12/23 05:45:14;;;;;;;2.35;1.65;;;-2.70;99.90;;;;;;4878791;29;20044;-65
2021/12/23 05:47:42;;;;;;;2.15;1.73;;;-2.60;99.90;;;;;;4876871;29;20444;-66
2021/12/23 05:50:11;;;;;;;2.38;1.73;;;-2.60;99.90;;;;;;4880394;29;20147;-66
2021/12/23 05:52:38;;;;;;;2.75;1.95;;;-2.60;99.90;;;;;;4875775;29;20067;-66
2021/12/23 05:55:07;;;;;;;2.03;1.85;;;-2.60;99.90;;;;;;4879345;29;21765;-65
2021/12/23 05:57:34;;;;;;;2.45;1.88;;;-2.60;99.90;;;;;;4879589;29;20056;-67
2021/12/23 06:00:07;;;;;;;3.50;2.25;;;-2.60;99.90;;;;;;4876347;29;20056;-67
2021/12/23 06:02:35;;;;;;;2.58;2.03;;;-2.60;99.90;;;;;;4876886;29;20057;-64
2021/12/23 06:05:04;;;;;;;2.33;1.73;;;-2.60;99.90;;;;;;4876497;29;20106;-65
2021/12/23 06:07:31;;;;;;;2.20;1.95;;;-2.60;99.90;;;;;;4879577;29;20081;-64
2021/12/23 06:09:59;;;;;;;2.67;1.70;;;-2.60;99.90;;;;;;4879826;29;20116;-64
2021/12/23 06:12:26;;;;;;;4.22;3.13;;;-2.60;99.90;;;;;;4876700;29;20170;-65
2021/12/23 06:14:53;;;;;;;3.03;2.15;;;-2.50;99.90;;;;;;4876225;29;20054;-67
2021/12/23 06:17:20;;;;;;;3.72;2.40;;;-2.50;99.90;;;;;;4879501;29;20063;-66
2021/12/23 06:19:48;;;;;;;3.25;2.05;;;-2.50;99.90;;;;;;4880412;29;20058;-64
2021/12/23 06:22:17;;;;;;;2.63;2.20;;;-2.50;99.90;;;;;;4880669;29;20140;-66
2021/12/23 06:24:47;;;;;;;3.43;2.67;;;-2.50;99.90;;;;;;4876369;29;20049;-68
2021/12/23 06:27:16;;;;;;;4.03;3.00;;;-2.50;99.90;;;;;;4878500;29;20333;-66
2021/12/23 06:29:44;;;;;;;3.20;2.97;;;-2.40;99.90;;;;;;4879895;29;20135;-69
2021/12/23 06:32:11;;;;;;;3.80;3.25;;;-2.40;99.90;;;;;;4879578;29;20151;-67
2021/12/23 06:34:39;;;;;;;52.30;35.15;;;-2.40;99.90;;;;;;4877885;29;20072;-64
2021/12/23 06:37:06;;;;;;;6.03;4.63;;;-2.40;99.90;;;;;;4878806;29;20127;-67
2021/12/23 06:39:34;;;;;;;4.82;3.05;;;-2.40;99.90;;;;;;4878774;29;20068;-67
2021/12/23 06:42:01;;;;;;;2.13;1.83;;;-2.30;99.90;;;;;;4877592;29;20124;-66
2021/12/23 06:44:28;;;;;;;3.83;2.55;;;-2.30;99.90;;;;;;4876681;29;20072;-64
2021/12/23 06:46:55;;;;;;;3.95;1.75;;;-2.20;99.90;;;;;;4877402;29;20057;-64
2021/12/23 06:49:22;;;;;;;3.75;2.10;;;-2.20;99.90;;;;;;4879026;29;20092;-68
2021/12/23 06:51:49;;;;;;;2.65;1.92;;;-2.20;99.90;;;;;;4878156;29;20052;-64
2021/12/23 06:54:17;;;;;;;2.42;1.55;;;-2.20;99.90;;;;;;4876194;29;20131;-66
2021/12/23 06:56:46;;;;;;;2.92;2.60;;;-2.10;99.90;;;;;;4878297;29;20121;-70
2021/12/23 06:59:16;;;;;;;3.63;2.42;;;-2.10;99.90;;;;;;4879140;29;20060;-69
2021/12/23 07:01:47;;;;;;;4.93;2.30;;;-2.10;99.90;;;;;;4877123;29;20049;-64
2021/12/23 07:04:17;;;;;;;3.28;2.72;;;-2.00;99.90;;;;;;4878431;29;20147;-67
2021/12/23 07:06:58;;;;;;;2.78;2.38;;;-2.00;99.90;;;;;;4876195;29;20099;-69
2021/12/23 07:09:25;;;;;;;3.17;2.50;;;-2.00;99.90;;;;;;4874416;29;20056;-68
2021/12/23 07:11:52;;;;;;;6.28;3.45;;;-2.00;99.90;;;;;;4877756;29;20060;-65
2021/12/23 07:14:19;;;;;;;5.95;4.75;;;-2.00;99.90;;;;;;4890102;29;20059;-66
2021/12/23 07:16:46;;;;;;;4.78;3.88;;;-2.00;99.90;;;;;;4891147;29;20160;-68
2021/12/23 07:19:13;;;;;;;4.25;3.00;;;-1.90;99.90;;;;;;4877764;29;20757;-67
2021/12/23 07:21:40;;;;;;;4.28;3.20;;;-1.90;99.90;;;;;;4877987;29;20456;-66
2021/12/23 07:24:07;;;;;;;5.03;3.22;;;-1.90;99.90;;;;;;4877705;29;20539;-69
2021/12/23 07:26:35;;;;;;;5.72;3.00;;;-1.90;99.90;;;;;;4892235;29;20155;-65
2021/12/23 07:29:02;;;;;;;3.13;2.88;;;-1.80;99.90;;;;;;4878647;29;20215;-65
2021/12/23 07:31:29;;;;;;;3.25;2.83;;;-1.90;99.90;;;;;;4877134;29;20179;-67
2021/12/23 07:33:56;;;;;;;4.28;2.97;;;-1.80;99.90;;;;;;4878411;29;20622;-67
2021/12/23 07:36:25;;;;;;;2.53;2.30;;;-1.80;99.90;;;;;;4876799;29;20219;-65
2021/12/23 07:38:52;;;;;;;4.20;3.00;;;-1.80;99.90;;;;;;4877613;29;20491;-70
2021/12/23 07:41:19;;;;;;;3.35;2.50;;;-1.80;99.90;;;;;;4877955;29;20369;-68
2021/12/23 07:44:06;;;;;;;4.93;2.50;;;-1.80;99.90;;;;;;4878305;29;20079;-69
2021/12/23 07:46:36;;;;;;;4.25;3.05;;;-1.80;99.90;;;;;;4872131;29;20218;-66
2021/12/23 07:49:04;;;;;;;3.40;2.58;;;-1.80;99.90;;;;;;4894239;29;20152;-68
2021/12/23 07:51:33;;;;;;;3.95;2.83;;;-1.80;99.90;;;;;;4878265;29;20072;-67
2021/12/23 07:54:00;;;;;;;4.55;3.63;;;-1.80;99.90;;;;;;4878188;29;20720;-65
2021/12/23 07:56:26;;;;;;;4.47;3.38;;;-1.80;99.90;;;;;;4875325;29;20069;-65
2021/12/23 07:58:53;;;;;;;4.45;3.30;;;-1.70;99.90;;;;;;4878619;29;20060;-70
2021/12/23 08:01:21;;;;;;;7.50;3.15;;;-1.80;99.90;;;;;;4876408;29;20052;-69
2021/12/23 08:03:48;;;;;;;4.82;3.42;;;-1.70;99.90;;;;;;4881014;29;20407;-65
2021/12/23 08:06:16;;;;;;;3.13;2.83;;;-1.70;99.90;;;;;;4875286;29;20147;-69
2021/12/23 08:08:44;;;;;;;3.05;2.58;;;-1.60;99.90;;;;;;4878303;29;20432;-65
2021/12/23 08:11:11;;;;;;;3.55;3.00;;;-1.60;99.90;;;;;;4876254;29;20143;-68
2021/12/23 08:13:39;;;;;;;3.22;2.72;;;-1.60;99.90;;;;;;4878225;29;20132;-65
2021/12/23 08:16:09;;;;;;;5.93;3.55;;;-1.50;99.90;;;;;;4877213;29;20060;-65
2021/12/23 08:18:36;;;;;;;4.47;2.80;;;-1.40;99.90;;;;;;4876679;29;20147;-65
2021/12/23 08:21:04;;;;;;;4.25;3.67;;;-1.20;99.90;;;;;;4874057;29;21152;-69
2021/12/23 08:23:31;;;;;;;4.78;3.70;;;-1.20;99.90;;;;;;4889999;29;21465;-65
2021/12/23 08:26:05;;;;;;;3.60;3.30;;;-1.10;99.90;;;;;;4876206;29;20131;-68
2021/12/23 08:28:32;;;;;;;7.82;3.88;;;-1.00;99.90;;;;;;4876321;29;20143;-66
2021/12/23 08:31:00;;;;;;;7.25;4.35;;;-0.90;99.90;;;;;;4875906;29;20056;-69
2021/12/23 08:33:27;;;;;;;5.45;4.93;;;-0.90;99.90;;;;;;4889625;29;20049;-70
2021/12/23 08:35:54;;;;;;;5.55;4.75;;;-0.90;99.90;;;;;;4876775;29;20052;-66
2021/12/23 08:38:21;;;;;;;6.22;4.20;;;-0.80;99.90;;;;;;4874428;29;20526;-63
2021/12/23 08:40:48;;;;;;;5.85;4.40;;;-0.80;99.90;;;;;;4874651;29;20056;-69
2021/12/23 08:43:15;;;;;;;5.40;4.63;;;-0.70;99.90;;;;;;4875587;29;20056;-65
2021/12/23 08:45:42;;;;;;;5.75;4.15;;;-0.70;99.90;;;;;;4876271;29;20215;-63
2021/12/23 08:48:09;;;;;;;5.15;4.53;;;-0.70;99.90;;;;;;4880136;29;20174;-69
2021/12/23 08:50:36;;;;;;;4.38;3.97;;;-0.60;99.90;;;;;;4868264;29;20450;-68
2021/12/23 08:53:04;;;;;;;4.32;3.75;;;-0.60;99.90;;;;;;4891165;29;20849;-65
2021/12/23 08:55:33;;;;;;;6.75;3.78;;;-0.50;99.90;;;;;;4875059;29;20055;-68
2021/12/23 08:58:04;;;;;;;4.50;3.90;;;-0.50;99.90;;;;;;4878806;29;20092;-65
2021/12/23 09:00:33;;;;;;;5.78;3.78;;;-0.50;99.90;;;;;;4878874;29;20108;-69
2021/12/23 09:03:00;;;;;;;7.82;4.13;;;-0.50;99.90;;;;;;4881071;29;20451;-66
2021/12/23 09:05:28;;;;;;;5.20;3.60;;;-0.50;99.90;;;;;;4882106;29;20132;-65
2021/12/23 09:07:55;;;;;;;6.97;5.18;;;-0.50;99.90;;;;;;4880933;29;20131;-67
2021/12/23 09:10:22;;;;;;;6.72;4.82;;;-0.50;99.90;;;;;;4880664;29;20359;-69
2021/12/23 09:12:50;;;;;;;7.30;5.25;;;-0.40;99.90;;;;;;4879570;29;20052;-65
2021/12/23 09:15:19;;;;;;;9.05;5.60;;;-0.40;99.90;;;;;;4873137;29;20052;-70
2021/12/23 09:17:46;;;;;;;8.07;5.75;;;-0.30;99.90;;;;;;4887138;29;20510;-67
2021/12/23 09:20:16;;;;;;;8.75;6.28;;;-0.30;99.90;;;;;;4881534;29;20140;-66
2021/12/23 09:22:50;;;;;;;6.53;5.55;;;-0.20;99.90;;;;;;4876419;29;20056;-65
2021/12/23 09:25:24;;;;;;;9.70;7.15;;;-0.20;99.90;;;;;;4879995;29;20058;-67
2021/12/23 09:28:25;;;;;;;7.63;6.30;;;-0.20;99.90;;;;;;4878004;29;20052;-65
2021/12/23 09:33:40;;;;;;;6.43;5.30;;;-0.10;99.90;;;;;;4878926;29;20056;-68
2021/12/23 09:36:08;;;;;;;6.20;5.43;;;0.00;99.90;;;;;;4876861;29;20144;-67
2021/12/23 09:38:35;;;;;;;8.27;5.05;;;0.00;99.90;;;;;;4878113;29;20302;-66
2021/12/23 09:41:19;;;;;;;6.93;5.20;;;0.10;99.90;;;;;;4876660;29;20056;-68
2021/12/23 09:43:47;;;;;;;6.78;4.95;;;0.10;99.90;;;;;;4880558;29;20080;-66
2021/12/23 09:46:17;;;;;;;6.28;4.57;;;0.20;99.90;;;;;;4877606;29;20135;-67
2021/12/23 09:48:46;;;;;;;6.10;4.85;;;0.20;99.90;;;;;;4878786;29;20051;-69
2021/12/23 09:51:20;;;;;;;6.90;6.20;;;0.20;99.90;;;;;;4879442;29;20060;-67
2021/12/23 09:53:55;;;;;;;6.38;4.75;;;0.20;99.90;;;;;;4881532;29;20111;-67
2021/12/23 09:56:23;;;;;;;6.43;4.80;;;0.20;99.90;;;;;;4878304;29;20048;-67
2021/12/23 09:58:50;;;;;;;6.85;4.88;;;0.30;99.90;;;;;;4878904;29;20136;-67
2021/12/23 10:01:17;;;;;;;5.90;5.30;;;0.30;99.90;;;;;;4878396;29;20048;-66
2021/12/23 10:03:44;;;;;;;8.20;7.40;;;0.30;99.90;;;;;;4880617;29;21017;-65
2021/12/23 10:06:11;;;;;;;7.60;6.32;;;0.40;99.90;;;;;;4879529;29;20052;-67
2021/12/23 10:08:40;;;;;;;8.20;6.40;;;0.50;99.90;;;;;;4879047;29;20508;-66
2021/12/23 10:11:23;;;;;;;10.27;6.97;;;0.50;99.90;;;;;;4880442;29;20064;-65
2021/12/23 10:32:15;;;;;;;8.80;6.15;;;0.90;99.90;;;;;;4877755;29;20121;-64
2021/12/23 10:37:23;;;;;;;6.60;5.35;;;0.90;99.90;;;;;;4875888;29;20432;-65
2021/12/23 10:39:50;;;;;;;7.97;5.55;;;1.00;99.90;;;;;;4879453;29;20065;-66
2021/12/23 10:42:23;;;;;;;7.10;5.57;;;1.00;99.90;;;;;;4877712;29;20056;-64
2021/12/23 10:44:54;;;;;;;5.53;4.95;;;1.00;99.90;;;;;;4878005;29;20479;-67
2021/12/23 10:47:41;;;;;;;6.72;5.20;;;1.00;99.90;;;;;;4879200;29;21028;-68
2021/12/23 10:50:33;;;;;;;7.75;5.22;;;1.10;99.90;;;;;;4877882;29;20562;-65
2021/12/23 10:53:07;;;;;;;9.30;5.95;;;1.10;99.90;;;;;;4879905;29;20052;-64
2021/12/23 10:58:21;;;;;;;5.78;5.05;;;1.30;99.90;;;;;;4879154;29;20068;-63
2021/12/23 11:00:53;;;;;;;6.95;5.15;;;1.30;99.90;;;;;;4876890;29;20132;-64
2021/12/23 11:06:04;;;;;;;6.95;5.88;;;1.30;99.90;;;;;;4878659;29;20080;-64
2021/12/23 11:09:39;;;;;;;7.70;5.25;;;1.30;99.90;;;;;;4876898;29;20401;-64
2021/12/23 11:39:30;;;;;;;4.15;3.60;;;1.70;99.90;;;;;;4879180;29;20057;-65
2021/12/23 11:42:14;;;;;;;7.55;4.00;;;1.80;99.90;;;;;;4873466;29;20056;-66
2021/12/23 11:44:42;;;;;;;3.50;3.17;;;1.80;99.90;;;;;;4876182;29;20420;-65
2021/12/23 11:47:13;;;;;;;4.55;3.55;;;1.90;99.90;;;;;;4877704;29;20080;-67
2021/12/23 11:49:43;;;;;;;5.90;3.10;;;2.00;99.90;;;;;;4877269;29;20428;-66
2021/12/23 11:52:10;;;;;;;5.00;2.65;;;2.00;99.90;;;;;;4875518;29;20056;-68
2021/12/23 11:54:42;;;;;;;2.88;1.88;;;2.00;99.90;;;;;;4871792;29;20056;-65
2021/12/23 11:57:24;;;;;;;3.25;2.95;;;2.10;99.90;;;;;;4877586;29;20647;-64
2021/12/23 12:02:39;;;;;;;3.00;2.70;;;2.00;99.90;;;;;;4876124;29;20440;-70
2021/12/23 12:05:14;;;;;;;2.58;2.35;;;1.90;99.90;;;;;;4876248;29;20728;-64
2021/12/23 12:07:41;;;;;;;3.13;2.08;;;1.90;99.90;;;;;;4874805;29;20626;-64
2021/12/23 12:10:12;;;;;;;2.60;1.90;;;2.00;99.90;;;;;;4876779;29;20602;-64
2021/12/23 12:12:57;;;;;;;3.30;2.78;;;2.00;99.90;;;;;;4874671;29;20065;-64
2021/12/23 12:15:39;;;;;;;5.85;2.47;;;2.00;99.90;;;;;;4877466;29;20615;-68
2021/12/23 12:18:08;;;;;;;3.65;3.25;;;2.00;99.90;;;;;;4876948;29;20052;-66
2021/12/23 12:20:53;;;;;;;4.47;4.07;;;2.00;99.90;;;;;;4873769;29;20158;-67
2021/12/23 12:23:44;;;;;;;5.03;3.60;;;2.00;99.90;;;;;;4876002;29;20455;-65
2021/12/23 12:26:21;;;;;;;9.27;4.28;;;1.90;99.90;;;;;;4877700;29;20057;-67
2021/12/23 12:28:48;;;;;;;4.68;4.20;;;1.90;99.90;;;;;;4874709;29;20112;-65
2021/12/23 12:31:17;;;;;;;4.85;3.90;;;1.90;99.90;;;;;;4873978;29;20139;-68
2021/12/23 12:33:53;;;;;;;2.88;2.67;;;1.90;99.90;;;;;;4879569;29;20067;-65
2021/12/23 12:36:22;;;;;;;6.22;3.38;;;1.90;99.90;;;;;;4876628;29;20045;-66
2021/12/23 12:39:30;;;;;;;5.55;2.95;;;1.90;99.90;;;;;;4882614;29;20064;-65
2021/12/23 12:42:07;;;;;;;3.15;1.73;;;1.90;99.90;;;;;;4881253;29;21108;-63
2021/12/23 12:44:47;;;;;;;3.05;2.20;;;1.90;99.90;;;;;;4878689;29;20093;-67
2021/12/23 12:47:26;;;;;;;3.20;2.75;;;2.00;99.90;;;;;;4881706;29;20151;-65
2021/12/23 12:50:11;;;;;;;2.35;1.70;;;2.00;99.90;;;;;;4881344;29;20199;-64
2021/12/23 12:52:43;;;;;;;2.83;2.15;;;2.00;99.90;;;;;;4880852;29;20056;-63
2021/12/23 12:55:18;;;;;;;3.60;2.10;;;2.00;99.90;;;;;;4881550;29;20060;-64
2021/12/23 12:57:48;;;;;;;1.88;1.70;;;2.00;99.90;;;;;;4868819;29;20515;-66
2021/12/23 13:00:32;;;;;;;4.25;2.08;;;2.00;99.90;;;;;;4879161;29;20468;-63
2021/12/23 13:03:14;;;;;;;4.30;2.42;;;2.00;99.90;;;;;;4879650;29;20579;-63
2021/12/23 13:05:47;;;;;;;3.35;2.63;;;2.00;99.90;;;;;;4877059;29;20076;-64
2021/12/23 13:08:28;;;;;;;1.45;1.35;;;1.90;99.90;;;;;;4875637;29;20179;-68
2021/12/23 13:11:12;;;;;;;3.45;2.30;;;1.90;99.90;;;;;;4873784;29;20056;-63
2021/12/23 13:14:00;;;;;;;4.55;2.10;;;1.90;99.90;;;;;;4872077;29;20056;-71
2021/12/23 13:16:55;;;;;;;4.60;2.05;;;1.90;99.90;;;;;;4891976;29;20367;-65
2021/12/23 13:19:28;;;;;;;2.55;1.80;;;1.90;99.90;;;;;;4879395;29;20120;-66
2021/12/23 13:21:57;;;;;;;3.08;1.33;;;1.80;99.90;;;;;;4878670;29;20266;-63
2021/12/23 13:24:26;;;;;;;3.25;1.60;;;1.80;99.90;;;;;;4877889;29;20076;-63
2021/12/23 13:26:56;;;;;;;1.38;0.90;;;1.80;99.90;;;;;;4872287;29;20173;-65
2021/12/23 13:29:28;;;;;;;2.38;1.38;;;1.80;99.90;;;;;;4873705;29;20060;-63
2021/12/23 13:32:00;;;;;;;2.08;1.00;;;1.80;99.90;;;;;;4879564;29;20123;-63
2021/12/23 13:34:29;;;;;;;1.17;0.77;;;1.80;99.90;;;;;;4875543;29;20052;-67
2021/12/23 13:37:01;;;;;;;1.10;1.00;;;1.80;99.90;;;;;;4878077;29;20187;-64
2021/12/23 13:39:32;;;;;;;1.55;1.45;;;1.70;99.90;;;;;;4875324;29;20171;-68
2021/12/23 13:42:00;;;;;;;1.45;1.35;;;1.70;99.90;;;;;;4878164;29;20072;-64
2021/12/23 13:44:28;;;;;;;1.20;0.90;;;1.70;99.90;;;;;;4873947;29;20175;-65
2021/12/23 13:47:04;;;;;;;2.03;0.73;;;1.70;99.90;;;;;;4876257;29;20212;-64
2021/12/23 13:49:38;;;;;;;1.40;1.20;;;1.70;99.90;;;;;;4878636;29;20053;-63
2021/12/23 13:52:17;;;;;;;3.00;1.05;;;1.70;99.90;;;;;;4878326;29;20044;-63
2021/12/23 13:54:44;;;;;;;3.20;1.60;;;1.70;99.90;;;;;;4877015;29;20068;-63
2021/12/23 13:57:17;;;;;;;2.05;1.95;;;1.70;99.90;;;;;;4877857;29;20827;-63
2021/12/23 13:59:45;;;;;;;2.65;1.50;;;1.70;99.90;;;;;;4879576;29;20135;-63
2021/12/23 14:02:15;;;;;;;2.20;1.65;;;1.70;99.90;;;;;;4877772;29;20084;-63
2021/12/23 14:05:01;;;;;;;2.30;1.17;;;1.70;99.90;;;;;;4878195;29;20142;-64
2021/12/23 14:07:37;;;;;;;3.28;1.98;;;1.70;99.90;;;;;;4876479;29;20424;-64
2021/12/23 14:10:15;;;;;;;2.47;1.75;;;1.70;99.90;;;;;;4878037;29;20146;-64
2021/12/23 14:13:03;;;;;;;2.70;2.50;;;1.80;99.90;;;;;;4877707;29;20116;-64